createdAt,value
2023-01-21T00:00:40.766Z,1006.62
2023-01-21T00:01:40.767Z,1006.61
2023-01-21T00:02:40.766Z,1006.66
2023-01-21T00:03:40.789Z,1006.60
2023-01-21T00:04:40.765Z,1006.65
2023-01-21T00:05:40.717Z,1006.65
2023-01-21T00:06:40.729Z,1006.69
2023-01-21T00:07:40.699Z,1006.70
2023-01-21T00:08:40.684Z,1006.64
2023-01-21T00:09:40.700Z,1006.69
2023-01-21T00:10:40.669Z,1006.73
2023-01-21T00:11:40.669Z,1006.69
2023-01-21T00:12:40.622Z,1006.75
2023-01-21T00:13:40.621Z,1006.74
2023-01-21T00:14:40.629Z,1006.70
2023-01-21T00:15:40.702Z,1006.76
2023-01-21T00:16:40.631Z,1006.73
2023-01-21T00:17:40.579Z,1006.73
2023-01-21T00:18:40.583Z,1006.73
2023-01-21T00:19:40.575Z,1006.77
2023-01-21T00:20:40.578Z,1006.81
2023-01-21T00:21:40.563Z,1006.77
2023-01-21T00:22:40.530Z,1006.79
2023-01-21T00:23:40.513Z,1006.80
2023-01-21T00:24:40.528Z,1006.86
2023-01-21T00:25:40.495Z,1006.83
2023-01-21T00:26:40.545Z,1006.80
2023-01-21T00:27:40.470Z,1006.86
2023-01-21T00:28:40.470Z,1006.84
2023-01-21T00:29:40.441Z,1006.89
2023-01-21T00:30:40.487Z,1006.84
2023-01-21T00:31:40.479Z,1006.86
2023-01-21T00:32:40.489Z,1006.85
2023-01-21T00:33:40.400Z,1006.85
2023-01-21T00:34:40.381Z,1006.90
2023-01-21T00:35:40.388Z,1006.85
2023-01-21T00:36:40.383Z,1006.84
2023-01-21T00:37:40.357Z,1006.90
2023-01-21T00:38:40.376Z,1006.91
2023-01-21T00:39:40.340Z,1006.86
2023-01-21T00:40:40.313Z,1006.87
2023-01-21T00:41:40.334Z,1006.85
2023-01-21T00:42:40.332Z,1006.86
2023-01-21T00:43:40.354Z,1006.89
2023-01-21T00:44:40.296Z,1006.90
2023-01-21T00:45:40.280Z,1006.93
2023-01-21T00:46:40.355Z,1006.98
2023-01-21T00:47:40.281Z,1006.98
2023-01-21T00:48:40.329Z,1006.98
2023-01-21T00:49:40.282Z,1006.98
2023-01-21T00:50:40.205Z,1006.95
2023-01-21T00:51:40.219Z,1006.98
2023-01-21T00:52:40.205Z,1006.91
2023-01-21T00:53:40.213Z,1006.98
2023-01-21T00:54:40.207Z,1006.95
2023-01-21T00:55:40.219Z,1006.96
2023-01-21T00:56:40.154Z,1007.01
2023-01-21T00:57:40.141Z,1007.05
2023-01-21T00:58:40.138Z,1007.01
2023-01-21T00:59:40.142Z,1007.05
2023-01-21T01:00:40.132Z,1006.98
2023-01-21T01:01:40.169Z,1007.08
2023-01-21T01:02:40.106Z,1007.06
2023-01-21T01:03:40.079Z,1007.09
2023-01-21T01:04:40.070Z,1007.06
2023-01-21T01:05:40.055Z,1007.09
2023-01-21T01:06:40.110Z,1007.08
2023-01-21T01:07:40.038Z,1007.08
2023-01-21T01:08:40.021Z,1007.13
2023-01-21T01:09:40.022Z,1007.11
2023-01-21T01:10:39.987Z,1007.16
2023-01-21T01:11:40.007Z,1007.13
2023-01-21T01:12:40.011Z,1007.13
2023-01-21T01:13:40.027Z,1007.17
2023-01-21T01:14:39.970Z,1007.13
2023-01-21T01:15:39.977Z,1007.19
2023-01-21T01:16:39.930Z,1007.18
2023-01-21T01:17:39.931Z,1007.20
2023-01-21T01:18:39.959Z,1007.22
2023-01-21T01:19:39.907Z,1007.19
2023-01-21T01:20:39.928Z,1007.22
2023-01-21T01:21:39.908Z,1007.20
2023-01-21T01:22:39.882Z,1007.16
2023-01-21T01:23:39.846Z,1007.24
2023-01-21T01:24:39.881Z,1007.20
2023-01-21T01:25:39.901Z,1007.25
2023-01-21T01:26:42.126Z,1007.26
2023-01-21T01:27:39.859Z,1007.23
2023-01-21T01:28:39.802Z,1007.28
2023-01-21T01:29:39.823Z,1007.29
2023-01-21T01:30:39.805Z,1007.30
2023-01-21T01:31:39.843Z,1007.31
2023-01-21T01:32:39.797Z,1007.30
2023-01-21T01:33:39.739Z,1007.34
2023-01-21T01:34:39.766Z,1007.34
2023-01-21T01:35:39.751Z,1007.36
2023-01-21T01:36:39.756Z,1007.38
2023-01-21T01:37:39.733Z,1007.37
2023-01-21T01:38:39.703Z,1007.36
2023-01-21T01:39:39.723Z,1007.39
2023-01-21T01:40:39.704Z,1007.43
2023-01-21T01:41:39.692Z,1007.44
2023-01-21T01:42:39.658Z,1007.37
2023-01-21T01:43:39.664Z,1007.43
2023-01-21T01:44:39.669Z,1007.45
2023-01-21T01:45:39.613Z,1007.42
2023-01-21T01:46:39.662Z,1007.39
2023-01-21T01:47:39.594Z,1007.43
2023-01-21T01:48:39.602Z,1007.52
2023-01-21T01:49:39.614Z,1007.46
2023-01-21T01:50:39.597Z,1007.48
2023-01-21T01:51:39.642Z,1007.54
2023-01-21T01:52:39.802Z,1007.48
2023-01-21T01:53:39.530Z,1007.53
2023-01-21T01:54:39.553Z,1007.50
2023-01-21T01:55:39.522Z,1007.45
2023-01-21T01:56:39.535Z,1007.47
2023-01-21T01:57:39.542Z,1007.48
2023-01-21T01:58:39.505Z,1007.52
2023-01-21T01:59:39.468Z,1007.53
2023-01-21T02:00:39.469Z,1007.51
2023-01-21T02:01:39.483Z,1007.51
2023-01-21T02:02:39.519Z,1007.46
2023-01-21T02:03:39.438Z,1007.43
2023-01-21T02:04:39.430Z,1007.41
2023-01-21T02:05:39.436Z,1007.48
2023-01-21T02:06:39.413Z,1007.41
2023-01-21T02:07:39.404Z,1007.46
2023-01-21T02:08:39.421Z,1007.41
2023-01-21T02:09:39.352Z,1007.49
2023-01-21T02:10:39.367Z,1007.37
2023-01-21T02:11:39.353Z,1007.38
2023-01-21T02:12:39.352Z,1007.42
2023-01-21T02:13:39.329Z,1007.40
2023-01-21T02:14:39.326Z,1007.38
2023-01-21T02:15:39.318Z,1007.39
2023-01-21T02:16:39.319Z,1007.40
2023-01-21T02:17:39.328Z,1007.40
2023-01-21T02:18:39.272Z,1007.38
2023-01-21T02:19:39.260Z,1007.45
2023-01-21T02:20:39.241Z,1007.37
2023-01-21T02:21:39.247Z,1007.42
2023-01-21T02:22:39.265Z,1007.49
2023-01-21T02:23:39.197Z,1007.53
2023-01-21T02:24:39.221Z,1007.49
2023-01-21T02:25:39.205Z,1007.47
2023-01-21T02:26:39.167Z,1007.45
2023-01-21T02:27:39.220Z,1007.44
2023-01-21T02:28:39.163Z,1007.47
2023-01-21T02:29:39.194Z,1007.50
2023-01-21T02:30:39.167Z,1007.46
2023-01-21T02:31:39.136Z,1007.47
2023-01-21T02:32:39.174Z,1007.50
2023-01-21T02:33:39.096Z,1007.52
2023-01-21T02:34:39.085Z,1007.49
2023-01-21T02:35:39.086Z,1007.50
2023-01-21T02:36:39.073Z,1007.50
2023-01-21T02:37:39.076Z,1007.51
2023-01-21T02:38:39.086Z,1007.49
2023-01-21T02:39:39.060Z,1007.45
2023-01-21T02:40:39.057Z,1007.49
2023-01-21T02:41:39.019Z,1007.47
2023-01-21T02:42:39.013Z,1007.47
2023-01-21T02:43:38.983Z,1007.47
2023-01-21T02:44:39.003Z,1007.45
2023-01-21T02:45:38.989Z,1007.49
2023-01-21T02:46:39.013Z,1007.47
2023-01-21T02:47:38.972Z,1007.47
2023-01-21T02:48:38.964Z,1007.44
2023-01-21T02:49:38.922Z,1007.45
2023-01-21T02:50:38.959Z,1007.45
2023-01-21T02:51:38.905Z,1007.48
2023-01-21T02:52:38.903Z,1007.50
2023-01-21T02:53:38.903Z,1007.48
2023-01-21T02:54:38.892Z,1007.50
2023-01-21T02:55:38.882Z,1007.49
2023-01-21T02:56:38.861Z,1007.52
2023-01-21T02:57:38.834Z,1007.53
2023-01-21T02:58:38.843Z,1007.53
2023-01-21T02:59:38.802Z,1007.60
2023-01-21T03:00:38.875Z,1007.59
2023-01-21T03:01:38.869Z,1007.57
2023-01-21T03:02:38.782Z,1007.57
2023-01-21T03:03:41.151Z,1007.52
2023-01-21T03:04:38.775Z,1007.54
2023-01-21T03:05:38.783Z,1007.54
2023-01-21T03:06:38.778Z,1007.56
2023-01-21T03:07:38.745Z,1007.53
2023-01-21T03:08:38.705Z,1007.58
2023-01-21T03:09:38.694Z,1007.61
2023-01-21T03:10:38.723Z,1007.63
2023-01-21T03:11:38.732Z,1007.58
2023-01-21T03:12:38.687Z,1007.64
2023-01-21T03:13:38.666Z,1007.70
2023-01-21T03:14:38.684Z,1007.64
2023-01-21T03:15:38.668Z,1007.66
2023-01-21T03:16:38.636Z,1007.68
2023-01-21T03:17:38.602Z,1007.67
2023-01-21T03:18:38.653Z,1007.66
2023-01-21T03:19:38.615Z,1007.63
2023-01-21T03:20:38.574Z,1007.63
2023-01-21T03:21:38.587Z,1007.61
2023-01-21T03:22:38.580Z,1007.71
2023-01-21T03:23:38.608Z,1007.68
2023-01-21T03:24:38.542Z,1007.67
2023-01-21T03:25:38.530Z,1007.69
2023-01-21T03:26:38.513Z,1007.64
2023-01-21T03:27:38.522Z,1007.65
2023-01-21T03:28:38.498Z,1007.64
2023-01-21T03:29:38.537Z,1007.68
2023-01-21T03:30:38.466Z,1007.66
2023-01-21T03:31:38.514Z,1007.66
2023-01-21T03:32:38.458Z,1007.75
2023-01-21T03:33:38.473Z,1007.73
2023-01-21T03:34:38.452Z,1007.74
2023-01-21T03:35:38.418Z,1007.73
2023-01-21T03:36:38.452Z,1007.79
2023-01-21T03:37:38.390Z,1007.72
2023-01-21T03:38:38.389Z,1007.77
2023-01-21T03:39:38.409Z,1007.80
2023-01-21T03:40:38.359Z,1007.83
2023-01-21T03:41:38.346Z,1007.80
2023-01-21T03:42:38.340Z,1007.76
2023-01-21T03:43:38.335Z,1007.81
2023-01-21T03:44:38.435Z,1007.84
2023-01-21T03:45:38.304Z,1007.81
2023-01-21T03:46:38.301Z,1007.80
2023-01-21T03:47:38.297Z,1007.81
2023-01-21T03:48:38.315Z,1007.83
2023-01-21T03:49:38.280Z,1007.85
2023-01-21T03:50:38.295Z,1007.88
2023-01-21T03:51:38.251Z,1007.86
2023-01-21T03:52:38.229Z,1007.89
2023-01-21T03:53:38.252Z,1007.89
2023-01-21T03:54:38.198Z,1007.83
2023-01-21T03:55:38.218Z,1007.81
2023-01-21T03:56:38.173Z,1007.86
2023-01-21T03:57:38.202Z,1007.83
2023-01-21T03:58:38.205Z,1007.87
2023-01-21T03:59:38.149Z,1007.85
2023-01-21T04:00:38.206Z,1007.87
2023-01-21T04:01:38.147Z,1007.82
2023-01-21T04:02:38.157Z,1007.76
2023-01-21T04:03:38.115Z,1007.82
2023-01-21T04:04:38.219Z,1007.79
2023-01-21T04:05:38.078Z,1007.81
2023-01-21T04:06:38.104Z,1007.81
2023-01-21T04:07:38.087Z,1007.82
2023-01-21T04:08:38.050Z,1007.73
2023-01-21T04:09:38.106Z,1007.81
2023-01-21T04:10:38.068Z,1007.80
2023-01-21T04:11:38.051Z,1007.78
2023-01-21T04:12:38.001Z,1007.82
2023-01-21T04:13:38.002Z,1007.81
2023-01-21T04:14:37.997Z,1007.79
2023-01-21T04:15:38.005Z,1007.79
2023-01-21T04:16:38.033Z,1007.81
2023-01-21T04:17:38.019Z,1007.80
2023-01-21T04:18:37.944Z,1007.81
2023-01-21T04:19:37.961Z,1007.82
2023-01-21T04:20:37.935Z,1007.77
2023-01-21T04:21:37.907Z,1007.82
2023-01-21T04:22:37.890Z,1007.75
2023-01-21T04:23:37.923Z,1007.83
2023-01-21T04:24:37.870Z,1007.78
2023-01-21T04:25:37.868Z,1007.81
2023-01-21T04:26:37.845Z,1007.77
2023-01-21T04:27:37.909Z,1007.83
2023-01-21T04:28:37.836Z,1007.76
2023-01-21T04:29:37.836Z,1007.85
2023-01-21T04:30:37.831Z,1007.84
2023-01-21T04:31:37.810Z,1007.84
2023-01-21T04:32:37.773Z,1007.81
2023-01-21T04:33:37.825Z,1007.87
2023-01-21T04:34:37.749Z,1007.85
2023-01-21T04:35:37.764Z,1007.86
2023-01-21T04:36:37.740Z,1007.90
2023-01-21T04:37:37.722Z,1007.93
2023-01-21T04:38:37.749Z,1007.89
2023-01-21T04:39:37.758Z,1007.95
2023-01-21T04:40:37.689Z,1007.97
2023-01-21T04:41:37.694Z,1007.97
2023-01-21T04:42:37.679Z,1007.99
2023-01-21T04:43:37.664Z,1008.01
2023-01-21T04:44:37.679Z,1007.94
2023-01-21T04:45:37.730Z,1007.96
2023-01-21T04:46:37.626Z,1008.01
2023-01-21T04:47:37.619Z,1007.98
2023-01-21T04:48:37.625Z,1008.00
2023-01-21T04:49:37.587Z,1008.05
2023-01-21T04:50:37.636Z,1008.07
2023-01-21T04:51:37.574Z,1008.13
2023-01-21T04:52:37.560Z,1008.05
2023-01-21T04:53:37.581Z,1008.10
2023-01-21T04:54:37.544Z,1008.09
2023-01-21T04:55:37.548Z,1008.12
2023-01-21T04:56:37.524Z,1008.18
2023-01-21T04:57:37.497Z,1008.26
2023-01-21T04:58:37.524Z,1008.21
2023-01-21T04:59:37.541Z,1008.24
2023-01-21T05:00:37.477Z,1008.26
2023-01-21T05:01:37.510Z,1008.26
2023-01-21T05:02:37.498Z,1008.34
2023-01-21T05:03:37.439Z,1008.33
2023-01-21T05:04:37.433Z,1008.32
2023-01-21T05:05:37.473Z,1008.39
2023-01-21T05:06:37.417Z,1008.38
2023-01-21T05:07:37.422Z,1008.42
2023-01-21T05:08:37.399Z,1008.39
2023-01-21T05:09:37.394Z,1008.40
2023-01-21T05:10:37.368Z,1008.40
2023-01-21T05:11:37.367Z,1008.38
2023-01-21T05:12:37.361Z,1008.39
2023-01-21T05:13:37.363Z,1008.49
2023-01-21T05:14:37.354Z,1008.44
2023-01-21T05:15:37.445Z,1008.42
2023-01-21T05:16:37.342Z,1008.45
2023-01-21T05:17:37.281Z,1008.40
2023-01-21T05:18:37.298Z,1008.44
2023-01-21T05:19:37.280Z,1008.50
2023-01-21T05:20:37.283Z,1008.43
2023-01-21T05:21:37.261Z,1008.51
2023-01-21T05:22:37.225Z,1008.42
2023-01-21T05:23:37.214Z,1008.52
2023-01-21T05:24:37.235Z,1008.55
2023-01-21T05:25:37.209Z,1008.52
2023-01-21T05:26:37.251Z,1008.55
2023-01-21T05:27:37.171Z,1008.54
2023-01-21T05:28:37.171Z,1008.54
2023-01-21T05:29:37.199Z,1008.51
2023-01-21T05:30:40.195Z,1008.57
2023-01-21T05:31:37.337Z,1008.57
2023-01-21T05:32:37.155Z,1008.57
2023-01-21T05:33:37.104Z,1008.50
2023-01-21T05:34:37.157Z,1008.58
2023-01-21T05:35:37.108Z,1008.60
2023-01-21T05:36:37.146Z,1008.55
2023-01-21T05:37:37.065Z,1008.58
2023-01-21T05:38:37.064Z,1008.58
2023-01-21T05:39:37.117Z,1008.54
2023-01-21T05:40:37.036Z,1008.62
2023-01-21T05:41:37.035Z,1008.57
2023-01-21T05:42:37.050Z,1008.63
2023-01-21T05:43:37.006Z,1008.63
2023-01-21T05:44:37.003Z,1008.60
2023-01-21T05:45:37.028Z,1008.66
2023-01-21T05:46:36.961Z,1008.63
2023-01-21T05:47:36.978Z,1008.66
2023-01-21T05:48:36.973Z,1008.58
2023-01-21T05:49:36.960Z,1008.67
2023-01-21T05:50:36.929Z,1008.66
2023-01-21T05:51:36.959Z,1008.69
2023-01-21T05:52:36.895Z,1008.70
2023-01-21T05:53:36.898Z,1008.74
2023-01-21T05:54:36.909Z,1008.73
2023-01-21T05:55:36.866Z,1008.77
2023-01-21T05:56:36.895Z,1008.76
2023-01-21T05:57:36.881Z,1008.73
2023-01-21T05:58:36.865Z,1008.81
2023-01-21T05:59:36.860Z,1008.76
2023-01-21T06:00:36.814Z,1008.86
2023-01-21T06:01:36.806Z,1008.82
2023-01-21T06:02:36.914Z,1008.90
2023-01-21T06:03:36.840Z,1008.85
2023-01-21T06:04:36.791Z,1008.92
2023-01-21T06:05:36.783Z,1008.95
2023-01-21T06:06:36.743Z,1008.96
2023-01-21T06:07:36.764Z,1008.95
2023-01-21T06:08:36.735Z,1008.92
2023-01-21T06:09:36.752Z,1008.92
2023-01-21T06:10:36.707Z,1008.93
2023-01-21T06:11:36.724Z,1008.90
2023-01-21T06:12:36.699Z,1008.93
2023-01-21T06:13:36.713Z,1008.92
2023-01-21T06:14:36.660Z,1008.91
2023-01-21T06:15:36.696Z,1008.87
2023-01-21T06:16:36.672Z,1008.85
2023-01-21T06:17:36.653Z,1008.83
2023-01-21T06:18:36.622Z,1008.93
2023-01-21T06:19:36.639Z,1008.85
2023-01-21T06:20:36.605Z,1008.95
2023-01-21T06:21:36.653Z,1008.91
2023-01-21T06:22:36.573Z,1008.95
2023-01-21T06:23:36.633Z,1008.92
2023-01-21T06:24:36.552Z,1008.97
2023-01-21T06:25:36.546Z,1008.92
2023-01-21T06:26:36.530Z,1008.95
2023-01-21T06:27:36.532Z,1008.97
2023-01-21T06:28:36.555Z,1009.01
2023-01-21T06:29:36.528Z,1008.98
2023-01-21T06:30:36.507Z,1009.01
2023-01-21T06:31:36.648Z,1009.05
2023-01-21T06:32:36.484Z,1009.02
2023-01-21T06:33:36.481Z,1009.05
2023-01-21T06:34:36.462Z,1009.05
2023-01-21T06:35:36.430Z,1009.16
2023-01-21T06:36:36.458Z,1009.20
2023-01-21T06:37:36.425Z,1009.21
2023-01-21T06:38:36.453Z,1009.19
2023-01-21T06:39:36.407Z,1009.19
2023-01-21T06:40:36.381Z,1009.16
2023-01-21T06:41:36.362Z,1009.24
2023-01-21T06:42:36.365Z,1009.25
2023-01-21T06:43:36.357Z,1009.22
2023-01-21T06:44:36.386Z,1009.27
2023-01-21T06:45:36.324Z,1009.25
2023-01-21T06:46:36.359Z,1009.29
2023-01-21T06:47:36.329Z,1009.26
2023-01-21T06:48:36.287Z,1009.28
2023-01-21T06:49:36.327Z,1009.31
2023-01-21T06:50:36.275Z,1009.29
2023-01-21T06:51:36.257Z,1009.29
2023-01-21T06:52:36.234Z,1009.25
2023-01-21T06:53:36.279Z,1009.34
2023-01-21T06:54:36.272Z,1009.32
2023-01-21T06:55:36.228Z,1009.34
2023-01-21T06:56:36.205Z,1009.36
2023-01-21T06:57:36.185Z,1009.42
2023-01-21T06:58:36.214Z,1009.40
2023-01-21T06:59:36.165Z,1009.43
2023-01-21T07:00:36.200Z,1009.48
2023-01-21T07:01:36.217Z,1009.43
2023-01-21T07:02:36.211Z,1009.40
2023-01-21T07:03:36.140Z,1009.42
2023-01-21T07:04:36.150Z,1009.45
2023-01-21T07:05:36.107Z,1009.42
2023-01-21T07:06:36.136Z,1009.41
2023-01-21T07:07:36.086Z,1009.37
2023-01-21T07:08:36.107Z,1009.41
2023-01-21T07:09:36.083Z,1009.41
2023-01-21T07:10:36.064Z,1009.39
2023-01-21T07:11:36.104Z,1009.49
2023-01-21T07:12:36.065Z,1009.43
2023-01-21T07:13:36.031Z,1009.43
2023-01-21T07:14:36.010Z,1009.46
2023-01-21T07:15:36.028Z,1009.46
2023-01-21T07:16:36.022Z,1009.49
2023-01-21T07:17:36.022Z,1009.44
2023-01-21T07:18:35.958Z,1009.48
2023-01-21T07:19:35.961Z,1009.43
2023-01-21T07:20:35.971Z,1009.45
2023-01-21T07:21:35.972Z,1009.47
2023-01-21T07:22:35.977Z,1009.49
2023-01-21T07:23:35.901Z,1009.47
2023-01-21T07:24:35.930Z,1009.49
2023-01-21T07:25:35.917Z,1009.52
2023-01-21T07:26:35.882Z,1009.51
2023-01-21T07:27:35.907Z,1009.50
2023-01-21T07:28:35.883Z,1009.56
2023-01-21T07:29:35.883Z,1009.51
2023-01-21T07:30:35.849Z,1009.53
2023-01-21T07:31:35.978Z,1009.54
2023-01-21T07:32:35.823Z,1009.53
2023-01-21T07:33:35.790Z,1009.58
2023-01-21T07:34:35.833Z,1009.52
2023-01-21T07:35:35.826Z,1009.57
2023-01-21T07:36:35.772Z,1009.54
2023-01-21T07:37:35.764Z,1009.54
2023-01-21T07:38:35.770Z,1009.52
2023-01-21T07:39:35.754Z,1009.59
2023-01-21T07:40:35.747Z,1009.53
2023-01-21T07:41:35.757Z,1009.51
2023-01-21T07:42:35.718Z,1009.53
2023-01-21T07:43:35.712Z,1009.56
2023-01-21T07:44:35.671Z,1009.51
2023-01-21T07:45:35.669Z,1009.53
2023-01-21T07:46:35.694Z,1009.54
2023-01-21T07:47:35.677Z,1009.49
2023-01-21T07:48:35.655Z,1009.51
2023-01-21T07:49:35.645Z,1009.54
2023-01-21T07:50:35.625Z,1009.56
2023-01-21T07:51:35.647Z,1009.60
2023-01-21T07:52:35.628Z,1009.57
2023-01-21T07:53:35.587Z,1009.54
2023-01-21T07:54:35.573Z,1009.60
2023-01-21T07:55:35.563Z,1009.57
2023-01-21T07:56:35.583Z,1009.59
2023-01-21T07:57:35.581Z,1009.52
2023-01-21T07:58:35.543Z,1009.56
2023-01-21T07:59:35.561Z,1009.54
2023-01-21T08:00:35.520Z,1009.53
2023-01-21T08:01:35.567Z,1009.56
2023-01-21T08:02:35.630Z,1009.59
2023-01-21T08:03:35.547Z,1009.55
2023-01-21T08:04:35.473Z,1009.53
2023-01-21T08:05:35.474Z,1009.52
2023-01-21T08:06:35.464Z,1009.54
2023-01-21T08:07:35.435Z,1009.50
2023-01-21T08:08:35.427Z,1009.54
2023-01-21T08:09:35.438Z,1009.53
2023-01-21T08:10:35.408Z,1009.54
2023-01-21T08:11:35.402Z,1009.57
2023-01-21T08:12:35.388Z,1009.55
2023-01-21T08:13:35.411Z,1009.50
2023-01-21T08:14:35.409Z,1009.49
2023-01-21T08:15:35.433Z,1009.50
2023-01-21T08:16:35.469Z,1009.48
2023-01-21T08:17:35.323Z,1009.52
2023-01-21T08:18:35.340Z,1009.46
2023-01-21T08:19:35.331Z,1009.52
2023-01-21T08:20:35.307Z,1009.48
2023-01-21T08:21:35.310Z,1009.51
2023-01-21T08:22:35.273Z,1009.44
2023-01-21T08:23:35.265Z,1009.47
2023-01-21T08:24:35.290Z,1009.44
2023-01-21T08:25:35.283Z,1009.43
2023-01-21T08:26:35.260Z,1009.41
2023-01-21T08:27:35.229Z,1009.47
2023-01-21T08:28:35.240Z,1009.50
2023-01-21T08:29:35.232Z,1009.46
2023-01-21T08:30:35.231Z,1009.44
2023-01-21T08:31:35.215Z,1009.47
2023-01-21T08:32:35.182Z,1009.44
2023-01-21T08:33:35.210Z,1009.48
2023-01-21T08:34:35.154Z,1009.49
2023-01-21T08:35:35.148Z,1009.50
2023-01-21T08:36:35.157Z,1009.50
2023-01-21T08:37:35.119Z,1009.52
2023-01-21T08:38:35.093Z,1009.57
2023-01-21T08:39:35.108Z,1009.60
2023-01-21T08:40:35.091Z,1009.54
2023-01-21T08:41:35.056Z,1009.57
2023-01-21T08:42:35.109Z,1009.52
2023-01-21T08:43:35.071Z,1009.55
2023-01-21T08:44:35.034Z,1009.62
2023-01-21T08:45:35.059Z,1009.63
2023-01-21T08:46:35.027Z,1009.61
2023-01-21T08:47:35.032Z,1009.57
2023-01-21T08:48:35.005Z,1009.57
2023-01-21T08:49:35.004Z,1009.60
2023-01-21T08:50:34.980Z,1009.61
2023-01-21T08:51:34.973Z,1009.60
2023-01-21T08:52:34.968Z,1009.59
2023-01-21T08:53:34.930Z,1009.61
2023-01-21T08:54:34.935Z,1009.59
2023-01-21T08:55:34.929Z,1009.63
2023-01-21T08:56:34.960Z,1009.60
2023-01-21T08:57:34.900Z,1009.64
2023-01-21T08:58:34.924Z,1009.64
2023-01-21T08:59:34.912Z,1009.60
2023-01-21T09:00:34.877Z,1009.54
2023-01-21T09:01:34.917Z,1009.62
2023-01-21T09:02:34.850Z,1009.61
2023-01-21T09:03:34.841Z,1009.60
2023-01-21T09:04:34.860Z,1009.65
2023-01-21T09:05:34.814Z,1009.61
2023-01-21T09:06:34.808Z,1009.67
2023-01-21T09:07:34.846Z,1009.61
2023-01-21T09:08:34.773Z,1009.64
2023-01-21T09:09:34.778Z,1009.62
2023-01-21T09:10:34.781Z,1009.64
2023-01-21T09:11:34.757Z,1009.63
2023-01-21T09:12:34.800Z,1009.63
2023-01-21T09:13:34.714Z,1009.59
2023-01-21T09:14:34.717Z,1009.63
2023-01-21T09:15:34.694Z,1009.62
2023-01-21T09:16:34.715Z,1009.62
2023-01-21T09:17:34.818Z,1009.63
2023-01-21T09:18:34.647Z,1009.62
2023-01-21T09:19:34.634Z,1009.68
2023-01-21T09:20:34.643Z,1009.64
2023-01-21T09:21:34.776Z,1009.66
2023-01-21T09:22:34.609Z,1009.68
2023-01-21T09:23:34.635Z,1009.73
2023-01-21T09:24:34.599Z,1009.75
2023-01-21T09:25:34.581Z,1009.76
2023-01-21T09:26:34.613Z,1009.70
2023-01-21T09:27:34.589Z,1009.76
2023-01-21T09:28:34.559Z,1009.76
2023-01-21T09:29:34.525Z,1009.77
2023-01-21T09:30:34.577Z,1009.75
2023-01-21T09:31:34.552Z,1009.71
2023-01-21T09:32:34.493Z,1009.77
2023-01-21T09:33:34.487Z,1009.76
2023-01-21T09:34:35.810Z,1009.79
2023-01-21T09:35:34.466Z,1009.75
2023-01-21T09:36:34.484Z,1009.73
2023-01-21T09:37:34.451Z,1009.77
2023-01-21T09:38:34.430Z,1009.79
2023-01-21T09:39:34.431Z,1009.79
2023-01-21T09:40:34.414Z,1009.79
2023-01-21T09:41:34.414Z,1009.76
2023-01-21T09:42:34.439Z,1009.81
2023-01-21T09:43:34.398Z,1009.82
2023-01-21T09:44:34.393Z,1009.82
2023-01-21T09:45:34.380Z,1009.88
2023-01-21T09:46:34.392Z,1009.86
2023-01-21T09:47:34.348Z,1009.88
2023-01-21T09:48:34.350Z,1009.85
2023-01-21T09:49:34.319Z,1009.90
2023-01-21T09:50:34.291Z,1009.88
2023-01-21T09:51:34.260Z,1009.81
2023-01-21T09:52:34.295Z,1009.87
2023-01-21T09:53:34.250Z,1009.91
2023-01-21T09:54:34.239Z,1009.88
2023-01-21T09:55:34.281Z,1009.88
2023-01-21T09:56:34.222Z,1009.87
2023-01-21T09:57:34.199Z,1009.88
2023-01-21T09:58:34.210Z,1009.92
2023-01-21T09:59:34.205Z,1009.88
2023-01-21T10:00:34.183Z,1009.84
2023-01-21T10:01:34.254Z,1009.83
2023-01-21T10:02:34.184Z,1009.89
2023-01-21T10:03:34.142Z,1009.90
2023-01-21T10:04:34.262Z,1009.91
2023-01-21T10:05:34.112Z,1009.93
2023-01-21T10:06:34.102Z,1009.98
2023-01-21T10:07:34.126Z,1009.90
2023-01-21T10:08:34.118Z,1009.97
2023-01-21T10:09:34.079Z,1009.94
2023-01-21T10:10:34.066Z,1009.98
2023-01-21T10:11:34.062Z,1009.99
2023-01-21T10:12:34.035Z,1009.95
2023-01-21T10:13:34.093Z,1009.97
2023-01-21T10:14:34.036Z,1009.97
2023-01-21T10:15:34.012Z,1009.92
2023-01-21T10:16:34.025Z,1009.94
2023-01-21T10:17:34.016Z,1009.90
2023-01-21T10:18:34.005Z,1009.95
2023-01-21T10:19:33.943Z,1009.90
2023-01-21T10:20:33.975Z,1009.93
2023-01-21T10:21:33.927Z,1009.96
2023-01-21T10:22:33.923Z,1009.95
2023-01-21T10:23:33.954Z,1009.93
2023-01-21T10:24:33.903Z,1009.92
2023-01-21T10:25:33.905Z,1009.87
2023-01-21T10:26:33.877Z,1009.89
2023-01-21T10:27:33.873Z,1009.95
2023-01-21T10:28:33.884Z,1009.84
2023-01-21T10:29:33.844Z,1009.84
2023-01-21T10:30:33.920Z,1009.86
2023-01-21T10:31:33.955Z,1009.87
2023-01-21T10:32:33.827Z,1009.87
2023-01-21T10:33:33.803Z,1009.82
2023-01-21T10:34:33.823Z,1009.86
2023-01-21T10:35:33.789Z,1009.86
2023-01-21T10:36:35.344Z,1009.80
2023-01-21T10:37:33.753Z,1009.81
2023-01-21T10:38:33.756Z,1009.83
2023-01-21T10:39:33.760Z,1009.89
2023-01-21T10:40:33.754Z,1009.84
2023-01-21T10:41:33.728Z,1009.93
2023-01-21T10:42:33.709Z,1009.82
2023-01-21T10:43:33.691Z,1009.89
2023-01-21T10:44:33.688Z,1009.86
2023-01-21T10:45:33.668Z,1009.85
2023-01-21T10:46:33.668Z,1009.88
2023-01-21T10:47:33.705Z,1009.82
2023-01-21T10:48:33.676Z,1009.84
2023-01-21T10:49:33.651Z,1009.85
2023-01-21T10:50:33.606Z,1009.84
2023-01-21T10:51:33.591Z,1009.82
2023-01-21T10:52:33.658Z,1009.85
2023-01-21T10:53:33.581Z,1009.81
2023-01-21T10:54:33.579Z,1009.87
2023-01-21T10:55:33.556Z,1009.84
2023-01-21T10:56:33.546Z,1009.86
2023-01-21T10:57:33.538Z,1009.81
2023-01-21T10:58:33.529Z,1009.80
2023-01-21T10:59:33.614Z,1009.82
2023-01-21T11:00:33.482Z,1009.84
2023-01-21T11:01:33.544Z,1009.78
2023-01-21T11:02:33.466Z,1009.79
2023-01-21T11:03:33.539Z,1009.86
2023-01-21T11:04:33.474Z,1009.89
2023-01-21T11:05:33.453Z,1009.91
2023-01-21T11:06:33.437Z,1009.87
2023-01-21T11:07:33.415Z,1009.85
2023-01-21T11:08:33.452Z,1009.81
2023-01-21T11:09:33.412Z,1009.89
2023-01-21T11:10:33.400Z,1009.85
2023-01-21T11:11:33.392Z,1009.89
2023-01-21T11:12:33.359Z,1009.90
2023-01-21T11:13:33.343Z,1009.90
2023-01-21T11:14:33.377Z,1009.87
2023-01-21T11:15:33.388Z,1009.88
2023-01-21T11:16:33.314Z,1009.92
2023-01-21T11:17:33.308Z,1009.88
2023-01-21T11:18:33.289Z,1009.89
2023-01-21T11:19:33.314Z,1009.89
2023-01-21T11:20:33.298Z,1009.86
2023-01-21T11:21:33.261Z,1009.90
2023-01-21T11:22:33.241Z,1009.86
2023-01-21T11:23:33.221Z,1009.81
2023-01-21T11:24:33.260Z,1009.86
2023-01-21T11:25:33.255Z,1009.86
2023-01-21T11:26:33.241Z,1009.73
2023-01-21T11:27:33.186Z,1009.80
2023-01-21T11:28:33.196Z,1009.74
2023-01-21T11:29:33.166Z,1009.80
2023-01-21T11:30:48.764Z,1009.75
2023-01-21T11:31:34.251Z,1009.78
2023-01-21T11:32:33.133Z,1009.81
2023-01-21T11:33:33.148Z,1009.68
2023-01-21T11:34:33.117Z,1009.76
2023-01-21T11:35:33.097Z,1009.72
2023-01-21T11:36:33.101Z,1009.73
2023-01-21T11:37:33.093Z,1009.71
2023-01-21T11:38:33.096Z,1009.68
2023-01-21T11:39:33.048Z,1009.68
2023-01-21T11:40:33.048Z,1009.64
2023-01-21T11:41:33.030Z,1009.67
2023-01-21T11:42:33.014Z,1009.63
2023-01-21T11:43:33.037Z,1009.66
2023-01-21T11:44:33.012Z,1009.63
2023-01-21T11:45:32.967Z,1009.73
2023-01-21T11:46:33.062Z,1009.69
2023-01-21T11:47:35.858Z,1009.70
2023-01-21T11:48:32.939Z,1009.64
2023-01-21T11:49:32.984Z,1009.66
2023-01-21T11:50:32.906Z,1009.63
2023-01-21T11:51:32.931Z,1009.67
2023-01-21T11:52:32.904Z,1009.66
2023-01-21T11:53:32.912Z,1009.63
2023-01-21T11:54:32.866Z,1009.64
2023-01-21T11:55:32.890Z,1009.62
2023-01-21T11:56:32.866Z,1009.68
2023-01-21T11:57:32.834Z,1009.66
2023-01-21T11:58:32.876Z,1009.60
2023-01-21T11:59:34.211Z,1009.57
2023-01-21T12:00:32.799Z,1009.59
2023-01-21T12:01:32.787Z,1009.61
2023-01-21T12:02:32.806Z,1009.57
2023-01-21T12:03:32.880Z,1009.58
2023-01-21T12:04:32.811Z,1009.51
2023-01-21T12:05:32.746Z,1009.53